sensor_id;sensor_type;location;lat;lon;timestamp;temperature;humidity
13426;DHT22;6785;57.918;12.530;2023-02-10T00:01:20;2.80;99.90
13426;DHT22;6785;57.918;12.530;2023-02-10T00:03:48;2.80;99.90
13426;DHT22;6785;57.918;12.530;2023-02-10T00:06:16;2.70;99.90
13426;DHT22;6785;57.918;12.530;2023-02-10T00:08:46;2.70;99.90
13426;DHT22;6785;57.918;12.530;2023-02-10T00:11:15;2.60;99.90
13426;DHT22;6785;57.918;12.530;2023-02-10T00:13:43;2.60;99.90
13426;DHT22;6785;57.918;12.530;2023-02-10T00:16:14;2.60;99.90
13426;DHT22;6785;57.918;12.530;2023-02-10T00:18:41;2.70;99.90
13426;DHT22;6785;57.918;12.530;2023-02-10T00:21:10;2.70;99.90
13426;DHT22;6785;57.918;12.530;2023-02-10T00:23:36;2.70;99.90
13426;DHT22;6785;57.918;12.530;2023-02-10T00:26:03;2.70;99.90
13426;DHT22;6785;57.918;12.530;2023-02-10T00:28:34;2.70;99.90
13426;DHT22;6785;57.918;12.530;2023-02-10T00:31:06;2.70;99.90
13426;DHT22;6785;57.918;12.530;2023-02-10T00:33:38;2.70;99.90
13426;DHT22;6785;57.918;12.530;2023-02-10T00:36:08;2.70;99.90
13426;DHT22;6785;57.918;12.530;2023-02-10T00:38:36;2.70;99.90
13426;DHT22;6785;57.918;12.530;2023-02-10T00:41:04;2.70;99.90
13426;DHT22;6785;57.918;12.530;2023-02-10T00:43:31;2.70;99.90
13426;DHT22;6785;57.918;12.530;2023-02-10T00:48:35;2.70;99.90
13426;DHT22;6785;57.918;12.530;2023-02-10T00:51:03;2.70;99.90
13426;DHT22;6785;57.918;12.530;2023-02-10T00:53:30;2.80;99.90
13426;DHT22;6785;57.918;12.530;2023-02-10T00:55:57;2.70;99.90
13426;DHT22;6785;57.918;12.530;2023-02-10T00:58:24;2.60;99.90
13426;DHT22;6785;57.918;12.530;2023-02-10T01:00:52;2.60;99.90
13426;DHT22;6785;57.918;12.530;2023-02-10T01:03:19;2.70;99.90
13426;DHT22;6785;57.918;12.530;2023-02-10T01:05:50;2.60;99.90
13426;DHT22;6785;57.918;12.530;2023-02-10T01:08:19;2.70;99.90
13426;DHT22;6785;57.918;12.530;2023-02-10T01:10:46;2.60;99.90
13426;DHT22;6785;57.918;12.530;2023-02-10T01:13:14;2.60;99.90
13426;DHT22;6785;57.918;12.530;2023-02-10T01:15:42;2.60;99.90
13426;DHT22;6785;57.918;12.530;2023-02-10T01:18:09;2.60;99.90
13426;DHT22;6785;57.918;12.530;2023-02-10T01:20:39;2.50;99.90
13426;DHT22;6785;57.918;12.530;2023-02-10T01:23:08;2.50;99.90
13426;DHT22;6785;57.918;12.530;2023-02-10T01:25:35;2.60;99.90
13426;DHT22;6785;57.918;12.530;2023-02-10T01:28:03;2.60;99.90
13426;DHT22;6785;57.918;12.530;2023-02-10T01:30:30;2.50;99.90
13426;DHT22;6785;57.918;12.530;2023-02-10T01:32:59;2.50;99.90
13426;DHT22;6785;57.918;12.530;2023-02-10T01:35:25;2.40;99.90
13426;DHT22;6785;57.918;12.530;2023-02-10T01:37:52;2.40;99.90
13426;DHT22;6785;57.918;12.530;2023-02-10T01:40:21;2.40;99.90
13426;DHT22;6785;57.918;12.530;2023-02-10T01:42:48;2.40;99.90
13426;DHT22;6785;57.918;12.530;2023-02-10T01:45:20;2.40;99.90
13426;DHT22;6785;57.918;12.530;2023-02-10T01:47:50;2.50;99.90
13426;DHT22;6785;57.918;12.530;2023-02-10T01:50:22;2.50;99.90
13426;DHT22;6785;57.918;12.530;2023-02-10T01:52:49;2.60;99.90
13426;DHT22;6785;57.918;12.530;2023-02-10T01:55:18;2.60;99.90
13426;DHT22;6785;57.918;12.530;2023-02-10T01:57:48;2.50;99.90
13426;DHT22;6785;57.918;12.530;2023-02-10T02:00:24;2.50;99.90
13426;DHT22;6785;57.918;12.530;2023-02-10T02:02:51;2.50;99.90
13426;DHT22;6785;57.918;12.530;2023-02-10T02:05:27;2.40;99.90
13426;DHT22;6785;57.918;12.530;2023-02-10T02:07:57;2.50;99.90
13426;DHT22;6785;57.918;12.530;2023-02-10T02:10:52;2.30;99.90
13426;DHT22;6785;57.918;12.530;2023-02-10T02:13:33;2.30;99.90
13426;DHT22;6785;57.918;12.530;2023-02-10T02:16:07;2.20;99.90
13426;DHT22;6785;57.918;12.530;2023-02-10T02:18:43;2.20;99.90
13426;DHT22;6785;57.918;12.530;2023-02-10T02:21:46;2.20;99.90
13426;DHT22;6785;57.918;12.530;2023-02-10T02:24:51;2.20;99.90
13426;DHT22;6785;57.918;12.530;2023-02-10T02:27:44;2.20;99.90
13426;DHT22;6785;57.918;12.530;2023-02-10T02:33:18;2.20;99.90
13426;DHT22;6785;57.918;12.530;2023-02-10T02:35:50;2.10;99.90
13426;DHT22;6785;57.918;12.530;2023-02-10T02:38:19;2.20;99.90
13426;DHT22;6785;57.918;12.530;2023-02-10T02:40:45;2.20;99.90
13426;DHT22;6785;57.918;12.530;2023-02-10T02:43:12;2.20;99.90
13426;DHT22;6785;57.918;12.530;2023-02-10T02:45:47;2.20;99.90
13426;DHT22;6785;57.918;12.530;2023-02-10T02:48:31;2.20;99.90
13426;DHT22;6785;57.918;12.530;2023-02-10T02:51:05;2.20;99.90
13426;DHT22;6785;57.918;12.530;2023-02-10T02:53:38;2.20;99.90
13426;DHT22;6785;57.918;12.530;2023-02-10T02:56:14;2.20;99.90
13426;DHT22;6785;57.918;12.530;2023-02-10T02:58:51;2.20;99.90
13426;DHT22;6785;57.918;12.530;2023-02-10T03:01:23;2.20;99.90
13426;DHT22;6785;57.918;12.530;2023-02-10T03:03:54;2.30;99.90
13426;DHT22;6785;57.918;12.530;2023-02-10T03:06:21;2.20;99.90
13426;DHT22;6785;57.918;12.530;2023-02-10T03:08:48;2.30;99.90
13426;DHT22;6785;57.918;12.530;2023-02-10T03:11:15;2.20;99.90
13426;DHT22;6785;57.918;12.530;2023-02-10T03:13:42;2.20;99.90
13426;DHT22;6785;57.918;12.530;2023-02-10T03:16:09;2.20;99.90
13426;DHT22;6785;57.918;12.530;2023-02-10T03:18:36;2.20;99.90
13426;DHT22;6785;57.918;12.530;2023-02-10T03:21:04;2.20;99.90
13426;DHT22;6785;57.918;12.530;2023-02-10T03:23:31;2.10;99.90
13426;DHT22;6785;57.918;12.530;2023-02-10T03:25:59;2.10;99.90
13426;DHT22;6785;57.918;12.530;2023-02-10T03:28:28;2.10;99.90
13426;DHT22;6785;57.918;12.530;2023-02-10T03:30:54;2.10;99.90
13426;DHT22;6785;57.918;12.530;2023-02-10T03:33:24;2.00;99.90
13426;DHT22;6785;57.918;12.530;2023-02-10T03:35:51;2.00;99.90
13426;DHT22;6785;57.918;12.530;2023-02-10T03:38:19;2.00;99.90
13426;DHT22;6785;57.918;12.530;2023-02-10T03:40:48;2.00;99.90
13426;DHT22;6785;57.918;12.530;2023-02-10T03:43:15;2.00;99.90
13426;DHT22;6785;57.918;12.530;2023-02-10T03:45:42;2.00;99.90
13426;DHT22;6785;57.918;12.530;2023-02-10T03:48:09;2.00;99.90
13426;DHT22;6785;57.918;12.530;2023-02-10T03:50:36;2.00;99.90
13426;DHT22;6785;57.918;12.530;2023-02-10T03:53:03;2.00;99.90
13426;DHT22;6785;57.918;12.530;2023-02-10T03:55:31;2.00;99.90
13426;DHT22;6785;57.918;12.530;2023-02-10T03:57:59;1.90;99.90
13426;DHT22;6785;57.918;12.530;2023-02-10T04:00:26;2.00;99.90
13426;DHT22;6785;57.918;12.530;2023-02-10T04:02:53;2.00;99.90
13426;DHT22;6785;57.918;12.530;2023-02-10T04:05:20;2.00;99.90
13426;DHT22;6785;57.918;12.530;2023-02-10T04:07:47;2.00;99.90
13426;DHT22;6785;57.918;12.530;2023-02-10T04:10:13;2.00;99.90
13426;DHT22;6785;57.918;12.530;2023-02-10T04:12:41;2.00;99.90
13426;DHT22;6785;57.918;12.530;2023-02-10T04:15:08;2.00;99.90
13426;DHT22;6785;57.918;12.530;2023-02-10T04:17:35;2.00;99.90
13426;DHT22;6785;57.918;12.530;2023-02-10T04:20:03;2.00;99.90
13426;DHT22;6785;57.918;12.530;2023-02-10T04:22:30;2.00;99.90
13426;DHT22;6785;57.918;12.530;2023-02-10T04:24:57;2.00;99.90
13426;DHT22;6785;57.918;12.530;2023-02-10T04:27:24;2.00;99.90
13426;DHT22;6785;57.918;12.530;2023-02-10T04:29:52;2.00;99.90
13426;DHT22;6785;57.918;12.530;2023-02-10T04:32:19;2.10;99.90
13426;DHT22;6785;57.918;12.530;2023-02-10T04:34:46;2.10;99.90
13426;DHT22;6785;57.918;12.530;2023-02-10T04:37:13;2.10;99.90
13426;DHT22;6785;57.918;12.530;2023-02-10T04:39:40;2.00;99.90
13426;DHT22;6785;57.918;12.530;2023-02-10T04:42:07;2.00;99.90
13426;DHT22;6785;57.918;12.530;2023-02-10T04:44:34;2.00;99.90
13426;DHT22;6785;57.918;12.530;2023-02-10T04:47:02;1.90;99.90
13426;DHT22;6785;57.918;12.530;2023-02-10T04:49:29;1.90;99.90
13426;DHT22;6785;57.918;12.530;2023-02-10T04:51:55;1.90;99.90
13426;DHT22;6785;57.918;12.530;2023-02-10T04:54:22;1.90;99.90
13426;DHT22;6785;57.918;12.530;2023-02-10T04:56:49;1.80;99.90
13426;DHT22;6785;57.918;12.530;2023-02-10T04:59:15;1.70;99.90
13426;DHT22;6785;57.918;12.530;2023-02-10T05:01:42;1.80;99.90
13426;DHT22;6785;57.918;12.530;2023-02-10T05:04:10;1.80;99.90
13426;DHT22;6785;57.918;12.530;2023-02-10T05:06:39;1.80;99.90
13426;DHT22;6785;57.918;12.530;2023-02-10T05:09:06;1.80;99.90
13426;DHT22;6785;57.918;12.530;2023-02-10T05:11:33;1.80;99.90
13426;DHT22;6785;57.918;12.530;2023-02-10T05:13:59;1.80;99.90
13426;DHT22;6785;57.918;12.530;2023-02-10T05:16:26;1.80;99.90
13426;DHT22;6785;57.918;12.530;2023-02-10T05:18:53;1.70;99.90
13426;DHT22;6785;57.918;12.530;2023-02-10T05:21:21;1.60;99.90
13426;DHT22;6785;57.918;12.530;2023-02-10T05:23:47;1.60;99.90
13426;DHT22;6785;57.918;12.530;2023-02-10T05:26:14;1.60;99.90
13426;DHT22;6785;57.918;12.530;2023-02-10T05:28:41;1.50;99.90
13426;DHT22;6785;57.918;12.530;2023-02-10T05:31:08;1.60;99.90
13426;DHT22;6785;57.918;12.530;2023-02-10T05:33:34;1.60;99.90
13426;DHT22;6785;57.918;12.530;2023-02-10T05:36:01;1.60;99.90
13426;DHT22;6785;57.918;12.530;2023-02-10T05:38:29;1.50;99.90
13426;DHT22;6785;57.918;12.530;2023-02-10T05:40:56;1.50;99.90
13426;DHT22;6785;57.918;12.530;2023-02-10T05:43:23;1.50;99.90
13426;DHT22;6785;57.918;12.530;2023-02-10T05:45:50;1.50;99.90
13426;DHT22;6785;57.918;12.530;2023-02-10T05:48:18;1.60;99.90
13426;DHT22;6785;57.918;12.530;2023-02-10T05:50:44;1.60;99.90
13426;DHT22;6785;57.918;12.530;2023-02-10T05:53:15;1.60;99.90
13426;DHT22;6785;57.918;12.530;2023-02-10T05:55:45;1.50;99.90
13426;DHT22;6785;57.918;12.530;2023-02-10T05:58:12;1.50;99.90
13426;DHT22;6785;57.918;12.530;2023-02-10T06:00:38;1.50;99.90
13426;DHT22;6785;57.918;12.530;2023-02-10T06:03:05;1.40;99.90
13426;DHT22;6785;57.918;12.530;2023-02-10T06:05:32;1.40;99.90
13426;DHT22;6785;57.918;12.530;2023-02-10T06:07:59;1.40;99.90
13426;DHT22;6785;57.918;12.530;2023-02-10T06:10:25;1.40;99.90
13426;DHT22;6785;57.918;12.530;2023-02-10T06:12:53;1.30;99.90
13426;DHT22;6785;57.918;12.530;2023-02-10T06:17:55;1.30;99.90
13426;DHT22;6785;57.918;12.530;2023-02-10T06:20:22;1.20;99.90
13426;DHT22;6785;57.918;12.530;2023-02-10T06:22:49;1.10;99.90
13426;DHT22;6785;57.918;12.530;2023-02-10T06:25:16;1.00;99.90
13426;DHT22;6785;57.918;12.530;2023-02-10T06:27:42;0.80;99.90
13426;DHT22;6785;57.918;12.530;2023-02-10T06:30:11;0.70;99.90
13426;DHT22;6785;57.918;12.530;2023-02-10T06:32:38;0.50;99.90
13426;DHT22;6785;57.918;12.530;2023-02-10T06:35:08;0.40;99.90
13426;DHT22;6785;57.918;12.530;2023-02-10T06:37:35;0.30;99.90
13426;DHT22;6785;57.918;12.530;2023-02-10T06:40:02;0.20;99.90
13426;DHT22;6785;57.918;12.530;2023-02-10T06:42:29;0.10;99.90
13426;DHT22;6785;57.918;12.530;2023-02-10T06:44:55;0.00;99.90
13426;DHT22;6785;57.918;12.530;2023-02-10T06:47:24;0.00;99.90
13426;DHT22;6785;57.918;12.530;2023-02-10T06:49:51;0.10;99.90
13426;DHT22;6785;57.918;12.530;2023-02-10T06:52:17;0.30;99.90
13426;DHT22;6785;57.918;12.530;2023-02-10T06:54:44;0.60;99.90
13426;DHT22;6785;57.918;12.530;2023-02-10T06:57:11;0.80;99.90
13426;DHT22;6785;57.918;12.530;2023-02-10T06:59:37;0.90;99.90
13426;DHT22;6785;57.918;12.530;2023-02-10T07:02:04;0.90;99.90
13426;DHT22;6785;57.918;12.530;2023-02-10T07:04:36;0.90;99.90
13426;DHT22;6785;57.918;12.530;2023-02-10T07:07:03;0.90;99.90
13426;DHT22;6785;57.918;12.530;2023-02-10T07:09:30;0.90;99.90
13426;DHT22;6785;57.918;12.530;2023-02-10T07:11:57;0.90;99.90
13426;DHT22;6785;57.918;12.530;2023-02-10T07:14:24;0.90;99.90
13426;DHT22;6785;57.918;12.530;2023-02-10T07:16:51;0.90;99.90
13426;DHT22;6785;57.918;12.530;2023-02-10T07:19:18;1.00;99.90
13426;DHT22;6785;57.918;12.530;2023-02-10T07:21:46;1.00;99.90
13426;DHT22;6785;57.918;12.530;2023-02-10T07:24:13;1.00;99.90
13426;DHT22;6785;57.918;12.530;2023-02-10T07:26:40;1.00;99.90
13426;DHT22;6785;57.918;12.530;2023-02-10T07:29:06;1.10;99.90
13426;DHT22;6785;57.918;12.530;2023-02-10T07:31:33;1.10;99.90
13426;DHT22;6785;57.918;12.530;2023-02-10T07:34:00;1.20;99.90
13426;DHT22;6785;57.918;12.530;2023-02-10T07:36:27;1.20;99.90
13426;DHT22;6785;57.918;12.530;2023-02-10T07:38:56;1.20;99.90
13426;DHT22;6785;57.918;12.530;2023-02-10T07:41:22;1.30;99.90
13426;DHT22;6785;57.918;12.530;2023-02-10T07:43:49;1.30;99.90
13426;DHT22;6785;57.918;12.530;2023-02-10T07:48:51;1.40;99.90
13426;DHT22;6785;57.918;12.530;2023-02-10T07:51:18;1.40;99.90
13426;DHT22;6785;57.918;12.530;2023-02-10T07:53:45;1.40;99.90
13426;DHT22;6785;57.918;12.530;2023-02-10T07:56:13;1.40;99.90
13426;DHT22;6785;57.918;12.530;2023-02-10T07:58:40;1.40;99.90
13426;DHT22;6785;57.918;12.530;2023-02-10T08:01:07;1.40;99.90
13426;DHT22;6785;57.918;12.530;2023-02-10T08:03:35;1.50;99.90
13426;DHT22;6785;57.918;12.530;2023-02-10T08:06:02;1.50;99.90
13426;DHT22;6785;57.918;12.530;2023-02-10T08:08:29;1.50;99.90
13426;DHT22;6785;57.918;12.530;2023-02-10T08:10:56;1.60;99.90
13426;DHT22;6785;57.918;12.530;2023-02-10T08:13:24;1.60;99.90
13426;DHT22;6785;57.918;12.530;2023-02-10T08:15:52;1.70;99.90
13426;DHT22;6785;57.918;12.530;2023-02-10T08:18:19;1.80;99.90
13426;DHT22;6785;57.918;12.530;2023-02-10T08:20:46;1.90;99.90
13426;DHT22;6785;57.918;12.530;2023-02-10T08:23:14;1.90;99.90
13426;DHT22;6785;57.918;12.530;2023-02-10T08:25:42;2.00;99.90
13426;DHT22;6785;57.918;12.530;2023-02-10T08:28:09;2.00;99.90
13426;DHT22;6785;57.918;12.530;2023-02-10T08:30:37;2.00;99.90
13426;DHT22;6785;57.918;12.530;2023-02-10T08:33:04;2.00;99.90
13426;DHT22;6785;57.918;12.530;2023-02-10T08:35:31;2.00;99.90
13426;DHT22;6785;57.918;12.530;2023-02-10T08:37:58;2.10;99.90
13426;DHT22;6785;57.918;12.530;2023-02-10T08:40:25;2.10;99.90
13426;DHT22;6785;57.918;12.530;2023-02-10T08:42:53;2.20;99.90
13426;DHT22;6785;57.918;12.530;2023-02-10T08:45:19;2.20;99.90
13426;DHT22;6785;57.918;12.530;2023-02-10T08:47:47;2.30;99.90
13426;DHT22;6785;57.918;12.530;2023-02-10T08:50:14;2.30;99.90
13426;DHT22;6785;57.918;12.530;2023-02-10T08:52:41;2.40;99.90
13426;DHT22;6785;57.918;12.530;2023-02-10T08:55:08;2.40;99.90
13426;DHT22;6785;57.918;12.530;2023-02-10T08:57:36;2.50;99.90
13426;DHT22;6785;57.918;12.530;2023-02-10T09:00:05;2.50;99.90
13426;DHT22;6785;57.918;12.530;2023-02-10T09:02:32;2.50;99.90
13426;DHT22;6785;57.918;12.530;2023-02-10T09:05:00;2.60;99.90
13426;DHT22;6785;57.918;12.530;2023-02-10T09:07:26;2.60;99.90
13426;DHT22;6785;57.918;12.530;2023-02-10T09:09:53;2.60;99.90
13426;DHT22;6785;57.918;12.530;2023-02-10T09:12:20;2.70;99.90
13426;DHT22;6785;57.918;12.530;2023-02-10T09:14:47;2.70;99.90
13426;DHT22;6785;57.918;12.530;2023-02-10T09:17:14;2.80;99.90
13426;DHT22;6785;57.918;12.530;2023-02-10T09:19:40;2.80;99.90
13426;DHT22;6785;57.918;12.530;2023-02-10T09:22:09;2.80;99.90
13426;DHT22;6785;57.918;12.530;2023-02-10T09:24:35;2.80;99.90
13426;DHT22;6785;57.918;12.530;2023-02-10T09:27:02;2.90;99.90
13426;DHT22;6785;57.918;12.530;2023-02-10T09:29:29;2.90;99.90
13426;DHT22;6785;57.918;12.530;2023-02-10T09:31:56;3.00;99.90
13426;DHT22;6785;57.918;12.530;2023-02-10T09:34:22;3.00;99.90
13426;DHT22;6785;57.918;12.530;2023-02-10T09:36:49;3.00;99.90
13426;DHT22;6785;57.918;12.530;2023-02-10T09:39:18;3.00;99.90
13426;DHT22;6785;57.918;12.530;2023-02-10T09:41:51;3.10;99.90
13426;DHT22;6785;57.918;12.530;2023-02-10T09:52:46;3.30;99.90
13426;DHT22;6785;57.918;12.530;2023-02-10T09:55:19;3.30;99.90
13426;DHT22;6785;57.918;12.530;2023-02-10T09:57:52;3.40;99.90
13426;DHT22;6785;57.918;12.530;2023-02-10T10:00:26;3.40;99.90
13426;DHT22;6785;57.918;12.530;2023-02-10T10:02:54;3.40;99.90
13426;DHT22;6785;57.918;12.530;2023-02-10T10:05:30;3.50;99.90
13426;DHT22;6785;57.918;12.530;2023-02-10T10:08:01;3.50;99.90
13426;DHT22;6785;57.918;12.530;2023-02-10T10:10:35;3.60;99.90
13426;DHT22;6785;57.918;12.530;2023-02-10T10:13:13;3.60;99.90
13426;DHT22;6785;57.918;12.530;2023-02-10T10:15:47;3.60;99.90
13426;DHT22;6785;57.918;12.530;2023-02-10T10:18:22;3.70;99.90
13426;DHT22;6785;57.918;12.530;2023-02-10T10:20:57;3.70;99.90
13426;DHT22;6785;57.918;12.530;2023-02-10T10:23:38;3.80;99.90
13426;DHT22;6785;57.918;12.530;2023-02-10T10:26:40;3.90;99.90
13426;DHT22;6785;57.918;12.530;2023-02-10T10:29:20;3.90;99.90
13426;DHT22;6785;57.918;12.530;2023-02-10T10:31:55;4.00;99.90
13426;DHT22;6785;57.918;12.530;2023-02-10T10:34:28;3.90;99.90
13426;DHT22;6785;57.918;12.530;2023-02-10T10:36:58;3.80;99.90
13426;DHT22;6785;57.918;12.530;2023-02-10T10:39:30;3.80;99.90
13426;DHT22;6785;57.918;12.530;2023-02-10T10:42:03;3.90;99.90
13426;DHT22;6785;57.918;12.530;2023-02-10T10:44:34;3.90;99.90
13426;DHT22;6785;57.918;12.530;2023-02-10T10:47:04;4.00;99.90
13426;DHT22;6785;57.918;12.530;2023-02-10T10:49:35;4.00;99.90
13426;DHT22;6785;57.918;12.530;2023-02-10T10:52:04;4.10;99.90
13426;DHT22;6785;57.918;12.530;2023-02-10T10:54:43;4.20;99.90
13426;DHT22;6785;57.918;12.530;2023-02-10T10:57:13;4.20;99.90
13426;DHT22;6785;57.918;12.530;2023-02-10T10:59:45;4.20;99.90
13426;DHT22;6785;57.918;12.530;2023-02-10T11:02:17;4.20;99.90
13426;DHT22;6785;57.918;12.530;2023-02-10T11:04:45;4.20;99.90
13426;DHT22;6785;57.918;12.530;2023-02-10T11:07:13;4.20;99.90
13426;DHT22;6785;57.918;12.530;2023-02-10T11:09:49;4.20;99.90
13426;DHT22;6785;57.918;12.530;2023-02-10T11:12:21;4.30;99.90
13426;DHT22;6785;57.918;12.530;2023-02-10T11:14:50;4.30;99.90
13426;DHT22;6785;57.918;12.530;2023-02-10T11:17:23;4.20;99.90
13426;DHT22;6785;57.918;12.530;2023-02-10T11:19:56;4.10;99.90
13426;DHT22;6785;57.918;12.530;2023-02-10T11:22:23;4.10;99.90
13426;DHT22;6785;57.918;12.530;2023-02-10T11:24:51;4.20;99.90
13426;DHT22;6785;57.918;12.530;2023-02-10T11:27:19;4.20;99.90
13426;DHT22;6785;57.918;12.530;2023-02-10T11:29:48;4.20;99.90
13426;DHT22;6785;57.918;12.530;2023-02-10T11:32:19;4.10;99.90
13426;DHT22;6785;57.918;12.530;2023-02-10T11:34:47;4.20;99.90
13426;DHT22;6785;57.918;12.530;2023-02-10T11:37:21;4.30;99.90
13426;DHT22;6785;57.918;12.530;2023-02-10T11:39:49;4.30;99.90
13426;DHT22;6785;57.918;12.530;2023-02-10T11:42:22;4.30;99.90
13426;DHT22;6785;57.918;12.530;2023-02-10T11:44:54;4.30;99.90
13426;DHT22;6785;57.918;12.530;2023-02-10T11:47:22;4.30;99.90
13426;DHT22;6785;57.918;12.530;2023-02-10T11:49:49;4.20;99.90
13426;DHT22;6785;57.918;12.530;2023-02-10T11:52:17;4.20;99.90
13426;DHT22;6785;57.918;12.530;2023-02-10T11:54:46;4.10;99.90
13426;DHT22;6785;57.918;12.530;2023-02-10T11:57:26;4.10;99.90
13426;DHT22;6785;57.918;12.530;2023-02-10T12:00:19;4.10;99.90
13426;DHT22;6785;57.918;12.530;2023-02-10T12:03:15;4.10;99.90
13426;DHT22;6785;57.918;12.530;2023-02-10T12:05:50;4.10;99.90
13426;DHT22;6785;57.918;12.530;2023-02-10T12:08:24;4.20;99.90
13426;DHT22;6785;57.918;12.530;2023-02-10T12:10:56;4.20;99.90
13426;DHT22;6785;57.918;12.530;2023-02-10T12:13:33;4.10;99.90
13426;DHT22;6785;57.918;12.530;2023-02-10T12:16:12;4.10;99.90
13426;DHT22;6785;57.918;12.530;2023-02-10T12:18:51;4.10;99.90
13426;DHT22;6785;57.918;12.530;2023-02-10T12:24:34;4.20;99.90
13426;DHT22;6785;57.918;12.530;2023-02-10T12:27:10;4.20;99.90
13426;DHT22;6785;57.918;12.530;2023-02-10T12:29:47;4.20;99.90
13426;DHT22;6785;57.918;12.530;2023-02-10T12:32:24;4.20;99.90
13426;DHT22;6785;57.918;12.530;2023-02-10T12:35:17;4.30;99.90
13426;DHT22;6785;57.918;12.530;2023-02-10T12:37:55;4.30;99.90
13426;DHT22;6785;57.918;12.530;2023-02-10T12:40:48;4.20;99.90
13426;DHT22;6785;57.918;12.530;2023-02-10T12:43:39;4.20;99.90
13426;DHT22;6785;57.918;12.530;2023-02-10T12:46:21;4.20;99.90
13426;DHT22;6785;57.918;12.530;2023-02-10T12:49:07;4.20;99.90
13426;DHT22;6785;57.918;12.530;2023-02-10T12:51:45;4.30;99.90
13426;DHT22;6785;57.918;12.530;2023-02-10T12:54:20;4.30;99.90
13426;DHT22;6785;57.918;12.530;2023-02-10T12:56:52;4.30;99.90
13426;DHT22;6785;57.918;12.530;2023-02-10T12:59:24;4.30;99.90
13426;DHT22;6785;57.918;12.530;2023-02-10T13:01:56;4.30;99.90
13426;DHT22;6785;57.918;12.530;2023-02-10T13:04:29;4.30;99.90
13426;DHT22;6785;57.918;12.530;2023-02-10T13:07:00;4.40;99.90
13426;DHT22;6785;57.918;12.530;2023-02-10T13:09:32;4.30;99.90
13426;DHT22;6785;57.918;12.530;2023-02-10T13:12:15;4.30;99.90
13426;DHT22;6785;57.918;12.530;2023-02-10T13:14:45;4.20;99.90
13426;DHT22;6785;57.918;12.530;2023-02-10T13:17:14;4.30;99.90
13426;DHT22;6785;57.918;12.530;2023-02-10T13:19:50;4.30;99.90
13426;DHT22;6785;57.918;12.530;2023-02-10T13:22:23;4.30;99.90
13426;DHT22;6785;57.918;12.530;2023-02-10T13:24:59;4.30;99.90
13426;DHT22;6785;57.918;12.530;2023-02-10T13:27:37;4.30;99.90
13426;DHT22;6785;57.918;12.530;2023-02-10T13:33:11;4.30;99.90
13426;DHT22;6785;57.918;12.530;2023-02-10T13:35:42;4.10;99.90
13426;DHT22;6785;57.918;12.530;2023-02-10T13:38:15;3.90;99.90
13426;DHT22;6785;57.918;12.530;2023-02-10T13:40:48;3.90;99.90
13426;DHT22;6785;57.918;12.530;2023-02-10T13:43:26;3.90;99.90
13426;DHT22;6785;57.918;12.530;2023-02-10T13:45:54;3.70;99.90
13426;DHT22;6785;57.918;12.530;2023-02-10T13:48:24;3.60;99.90
13426;DHT22;6785;57.918;12.530;2023-02-10T13:50:56;3.50;99.90
13426;DHT22;6785;57.918;12.530;2023-02-10T13:53:29;3.60;99.90
13426;DHT22;6785;57.918;12.530;2023-02-10T13:56:04;3.50;99.90
13426;DHT22;6785;57.918;12.530;2023-02-10T13:58:48;3.40;99.90
13426;DHT22;6785;57.918;12.530;2023-02-10T14:01:33;3.40;99.90
13426;DHT22;6785;57.918;12.530;2023-02-10T14:04:02;3.50;99.90
13426;DHT22;6785;57.918;12.530;2023-02-10T14:06:38;3.50;99.90
13426;DHT22;6785;57.918;12.530;2023-02-10T14:09:17;3.50;99.90
13426;DHT22;6785;57.918;12.530;2023-02-10T14:11:45;3.50;99.90
13426;DHT22;6785;57.918;12.530;2023-02-10T14:14:20;3.60;99.90
13426;DHT22;6785;57.918;12.530;2023-02-10T14:16:49;3.50;99.90
13426;DHT22;6785;57.918;12.530;2023-02-10T14:19:23;3.50;99.90
13426;DHT22;6785;57.918;12.530;2023-02-10T14:21:54;3.50;99.90
13426;DHT22;6785;57.918;12.530;2023-02-10T14:24:24;3.50;99.90
13426;DHT22;6785;57.918;12.530;2023-02-10T14:26:51;3.40;99.90
13426;DHT22;6785;57.918;12.530;2023-02-10T14:29:19;3.40;99.90
13426;DHT22;6785;57.918;12.530;2023-02-10T14:31:50;3.40;99.90
13426;DHT22;6785;57.918;12.530;2023-02-10T14:34:26;3.40;99.90
13426;DHT22;6785;57.918;12.530;2023-02-10T14:36:58;3.40;99.90
13426;DHT22;6785;57.918;12.530;2023-02-10T14:39:27;3.30;99.90
13426;DHT22;6785;57.918;12.530;2023-02-10T14:41:56;3.30;99.90
13426;DHT22;6785;57.918;12.530;2023-02-10T14:44:26;3.20;99.90
13426;DHT22;6785;57.918;12.530;2023-02-10T14:46:55;3.10;99.90
13426;DHT22;6785;57.918;12.530;2023-02-10T14:49:23;3.00;99.90
13426;DHT22;6785;57.918;12.530;2023-02-10T14:51:51;3.00;99.90
13426;DHT22;6785;57.918;12.530;2023-02-10T14:54:19;3.00;99.90
13426;DHT22;6785;57.918;12.530;2023-02-10T14:56:51;3.00;99.90
13426;DHT22;6785;57.918;12.530;2023-02-10T14:59:19;2.90;99.90
13426;DHT22;6785;57.918;12.530;2023-02-10T15:01:47;3.00;99.90
13426;DHT22;6785;57.918;12.530;2023-02-10T15:04:15;2.80;99.90
13426;DHT22;6785;57.918;12.530;2023-02-10T15:06:45;2.70;99.90
13426;DHT22;6785;57.918;12.530;2023-02-10T15:09:16;2.70;99.90
13426;DHT22;6785;57.918;12.530;2023-02-10T15:11:46;2.60;99.90
13426;DHT22;6785;57.918;12.530;2023-02-10T15:14:34;2.60;99.90
13426;DHT22;6785;57.918;12.530;2023-02-10T15:17:05;2.60;99.90
13426;DHT22;6785;57.918;12.530;2023-02-10T15:19:32;2.50;99.90
13426;DHT22;6785;57.918;12.530;2023-02-10T15:22:00;2.50;99.90
13426;DHT22;6785;57.918;12.530;2023-02-10T15:24:31;2.50;99.90
13426;DHT22;6785;57.918;12.530;2023-02-10T15:27:12;2.40;99.90
13426;DHT22;6785;57.918;12.530;2023-02-10T15:29:39;2.40;99.90
13426;DHT22;6785;57.918;12.530;2023-02-10T15:32:15;2.40;99.90
13426;DHT22;6785;57.918;12.530;2023-02-10T15:34:43;2.40;99.90
13426;DHT22;6785;57.918;12.530;2023-02-10T15:37:18;2.40;99.90
13426;DHT22;6785;57.918;12.530;2023-02-10T15:39:55;2.40;99.90
13426;DHT22;6785;57.918;12.530;2023-02-10T15:42:22;2.50;99.90
13426;DHT22;6785;57.918;12.530;2023-02-10T15:45:01;2.50;99.90
13426;DHT22;6785;57.918;12.530;2023-02-10T15:47:43;2.60;99.90
13426;DHT22;6785;57.918;12.530;2023-02-10T15:50:12;2.60;99.90
13426;DHT22;6785;57.918;12.530;2023-02-10T15:52:41;2.70;99.90
13426;DHT22;6785;57.918;12.530;2023-02-10T15:55:18;2.60;99.90
13426;DHT22;6785;57.918;12.530;2023-02-10T15:57:45;2.80;99.90
13426;DHT22;6785;57.918;12.530;2023-02-10T16:00:19;2.90;99.90
13426;DHT22;6785;57.918;12.530;2023-02-10T16:02:46;3.00;99.90
13426;DHT22;6785;57.918;12.530;2023-02-10T16:05:13;3.00;99.90
13426;DHT22;6785;57.918;12.530;2023-02-10T16:07:41;3.10;99.90
13426;DHT22;6785;57.918;12.530;2023-02-10T16:10:14;3.20;99.90
13426;DHT22;6785;57.918;12.530;2023-02-10T16:12:41;3.30;99.90
13426;DHT22;6785;57.918;12.530;2023-02-10T16:15:12;3.40;99.90
13426;DHT22;6785;57.918;12.530;2023-02-10T16:17:42;3.40;99.90
13426;DHT22;6785;57.918;12.530;2023-02-10T16:20:14;3.50;99.90
13426;DHT22;6785;57.918;12.530;2023-02-10T16:22:42;3.60;99.90
13426;DHT22;6785;57.918;12.530;2023-02-10T16:25:09;3.70;99.90
13426;DHT22;6785;57.918;12.530;2023-02-10T16:27:36;3.70;99.90
13426;DHT22;6785;57.918;12.530;2023-02-10T16:30:03;3.80;99.90